Terminal Aerodrome Forecast
Issued by NWS Lake Charles, LA

Home | Current Version | Previous Version | Text Only | Print | Product List | Glossary On
Versions: 1 2 3 4 5 6 7 8 9 10 11 12 13 14 15
413
FTUS44 KLCH 311731
TAFARA
TAF
KARA 311731Z 3118/0118 19006KT P6SM VCTS SCT035CB SCT200
     FM010100 VRB03KT P6SM SCT200
     FM011400 13005KT P6SM SCT025 BKN100=

USA.gov is the U.S. government's official web portal to all federal, state and local government web resources and services.